sensor_id;sensor_type;location;lat;lon;timestamp;P1;durP1;ratioP1;P2;durP2;ratioP2
46391;SDS011;32098;49.448;7.904;2023-08-08T00:00:20;2.87;;;1.70;;
46391;SDS011;32098;49.448;7.904;2023-08-08T00:02:47;2.80;;;1.63;;
46391;SDS011;32098;49.448;7.904;2023-08-08T00:05:13;2.67;;;1.63;;
46391;SDS011;32098;49.448;7.904;2023-08-08T00:07:40;1.90;;;1.70;;
46391;SDS011;32098;49.448;7.904;2023-08-08T00:10:06;3.20;;;1.83;;
46391;SDS011;32098;49.448;7.904;2023-08-08T00:12:34;4.33;;;2.10;;
46391;SDS011;32098;49.448;7.904;2023-08-08T00:15:01;4.30;;;1.60;;
46391;SDS011;32098;49.448;7.904;2023-08-08T00:17:27;2.40;;;1.67;;
46391;SDS011;32098;49.448;7.904;2023-08-08T00:19:54;2.53;;;1.60;;
46391;SDS011;32098;49.448;7.904;2023-08-08T00:22:20;3.50;;;1.93;;
46391;SDS011;32098;49.448;7.904;2023-08-08T00:24:47;2.23;;;1.93;;
46391;SDS011;32098;49.448;7.904;2023-08-08T00:27:13;6.13;;;1.80;;
46391;SDS011;32098;49.448;7.904;2023-08-08T00:29:40;2.43;;;1.40;;
46391;SDS011;32098;49.448;7.904;2023-08-08T00:32:07;2.93;;;1.60;;
46391;SDS011;32098;49.448;7.904;2023-08-08T00:34:33;2.60;;;1.40;;
46391;SDS011;32098;49.448;7.904;2023-08-08T00:37:00;2.93;;;1.47;;
46391;SDS011;32098;49.448;7.904;2023-08-08T00:39:26;4.43;;;1.80;;
46391;SDS011;32098;49.448;7.904;2023-08-08T00:41:53;2.73;;;1.70;;
46391;SDS011;32098;49.448;7.904;2023-08-08T00:44:19;1.70;;;1.53;;
46391;SDS011;32098;49.448;7.904;2023-08-08T00:46:46;3.00;;;1.50;;
46391;SDS011;32098;49.448;7.904;2023-08-08T00:49:13;2.17;;;1.87;;
46391;SDS011;32098;49.448;7.904;2023-08-08T00:51:39;2.93;;;1.70;;
46391;SDS011;32098;49.448;7.904;2023-08-08T00:54:06;2.20;;;1.50;;
46391;SDS011;32098;49.448;7.904;2023-08-08T00:56:34;1.87;;;1.50;;
46391;SDS011;32098;49.448;7.904;2023-08-08T00:59:02;3.30;;;1.50;;
46391;SDS011;32098;49.448;7.904;2023-08-08T01:01:29;2.00;;;1.80;;
46391;SDS011;32098;49.448;7.904;2023-08-08T01:03:55;2.27;;;1.50;;
46391;SDS011;32098;49.448;7.904;2023-08-08T01:06:28;2.73;;;2.23;;
46391;SDS011;32098;49.448;7.904;2023-08-08T01:09:01;2.70;;;1.87;;
46391;SDS011;32098;49.448;7.904;2023-08-08T01:11:35;3.07;;;2.10;;
46391;SDS011;32098;49.448;7.904;2023-08-08T01:14:03;6.93;;;2.30;;
46391;SDS011;32098;49.448;7.904;2023-08-08T01:16:32;2.93;;;2.20;;
46391;SDS011;32098;49.448;7.904;2023-08-08T01:18:59;4.87;;;2.40;;
46391;SDS011;32098;49.448;7.904;2023-08-08T01:21:27;4.77;;;2.13;;
46391;SDS011;32098;49.448;7.904;2023-08-08T01:23:59;2.83;;;1.83;;
46391;SDS011;32098;49.448;7.904;2023-08-08T01:26:31;3.83;;;2.03;;
46391;SDS011;32098;49.448;7.904;2023-08-08T01:28:58;3.17;;;1.93;;
46391;SDS011;32098;49.448;7.904;2023-08-08T01:31:27;3.07;;;1.90;;
46391;SDS011;32098;49.448;7.904;2023-08-08T01:33:54;3.17;;;1.97;;
46391;SDS011;32098;49.448;7.904;2023-08-08T01:36:22;1.80;;;1.70;;
46391;SDS011;32098;49.448;7.904;2023-08-08T01:38:55;2.87;;;1.60;;
46391;SDS011;32098;49.448;7.904;2023-08-08T01:41:34;2.10;;;1.43;;
46391;SDS011;32098;49.448;7.904;2023-08-08T01:44:04;2.43;;;1.80;;
46391;SDS011;32098;49.448;7.904;2023-08-08T01:46:32;3.93;;;1.90;;
46391;SDS011;32098;49.448;7.904;2023-08-08T01:49:00;5.27;;;2.00;;
46391;SDS011;32098;49.448;7.904;2023-08-08T01:51:26;2.37;;;1.50;;
46391;SDS011;32098;49.448;7.904;2023-08-08T01:53:53;3.00;;;1.50;;
46391;SDS011;32098;49.448;7.904;2023-08-08T01:56:20;3.23;;;1.63;;
46391;SDS011;32098;49.448;7.904;2023-08-08T01:58:46;3.10;;;1.80;;
46391;SDS011;32098;49.448;7.904;2023-08-08T02:01:13;2.63;;;1.67;;
46391;SDS011;32098;49.448;7.904;2023-08-08T02:03:40;2.60;;;1.43;;
46391;SDS011;32098;49.448;7.904;2023-08-08T02:06:07;2.57;;;1.80;;
46391;SDS011;32098;49.448;7.904;2023-08-08T02:08:34;1.90;;;1.70;;
46391;SDS011;32098;49.448;7.904;2023-08-08T02:11:01;2.30;;;1.80;;
46391;SDS011;32098;49.448;7.904;2023-08-08T02:13:28;3.10;;;1.83;;
46391;SDS011;32098;49.448;7.904;2023-08-08T02:15:54;2.70;;;1.80;;
46391;SDS011;32098;49.448;7.904;2023-08-08T02:18:21;2.43;;;1.70;;
46391;SDS011;32098;49.448;7.904;2023-08-08T02:20:47;4.30;;;2.03;;
46391;SDS011;32098;49.448;7.904;2023-08-08T02:23:14;3.87;;;1.73;;
46391;SDS011;32098;49.448;7.904;2023-08-08T02:25:41;2.40;;;1.80;;
46391;SDS011;32098;49.448;7.904;2023-08-08T02:28:08;2.97;;;1.70;;
46391;SDS011;32098;49.448;7.904;2023-08-08T02:30:34;3.83;;;1.90;;
46391;SDS011;32098;49.448;7.904;2023-08-08T02:33:01;3.40;;;1.90;;
46391;SDS011;32098;49.448;7.904;2023-08-08T02:35:28;2.30;;;1.80;;
46391;SDS011;32098;49.448;7.904;2023-08-08T02:37:54;1.77;;;1.60;;
46391;SDS011;32098;49.448;7.904;2023-08-08T02:40:21;3.13;;;1.90;;
46391;SDS011;32098;49.448;7.904;2023-08-08T02:42:49;5.60;;;2.30;;
46391;SDS011;32098;49.448;7.904;2023-08-08T02:45:16;3.17;;;2.10;;
46391;SDS011;32098;49.448;7.904;2023-08-08T02:47:43;3.77;;;1.80;;
46391;SDS011;32098;49.448;7.904;2023-08-08T02:50:10;4.63;;;2.63;;
46391;SDS011;32098;49.448;7.904;2023-08-08T02:52:36;4.47;;;1.93;;
46391;SDS011;32098;49.448;7.904;2023-08-08T02:55:03;4.90;;;1.70;;
46391;SDS011;32098;49.448;7.904;2023-08-08T02:57:30;4.33;;;2.07;;
46391;SDS011;32098;49.448;7.904;2023-08-08T02:59:57;5.30;;;1.80;;
46391;SDS011;32098;49.448;7.904;2023-08-08T03:02:25;4.30;;;1.70;;
46391;SDS011;32098;49.448;7.904;2023-08-08T03:04:52;4.07;;;2.03;;
46391;SDS011;32098;49.448;7.904;2023-08-08T03:07:21;7.03;;;2.10;;
46391;SDS011;32098;49.448;7.904;2023-08-08T03:09:48;2.37;;;1.70;;
46391;SDS011;32098;49.448;7.904;2023-08-08T03:12:14;3.27;;;1.93;;
46391;SDS011;32098;49.448;7.904;2023-08-08T03:14:41;1.90;;;1.70;;
46391;SDS011;32098;49.448;7.904;2023-08-08T03:17:08;2.43;;;2.03;;
46391;SDS011;32098;49.448;7.904;2023-08-08T03:19:34;1.77;;;1.60;;
46391;SDS011;32098;49.448;7.904;2023-08-08T03:22:02;7.10;;;1.90;;
46391;SDS011;32098;49.448;7.904;2023-08-08T03:24:29;3.83;;;1.90;;
46391;SDS011;32098;49.448;7.904;2023-08-08T03:26:55;4.70;;;1.60;;
46391;SDS011;32098;49.448;7.904;2023-08-08T03:29:22;2.07;;;1.70;;
46391;SDS011;32098;49.448;7.904;2023-08-08T03:31:48;2.53;;;1.70;;
46391;SDS011;32098;49.448;7.904;2023-08-08T03:34:16;2.57;;;1.67;;
46391;SDS011;32098;49.448;7.904;2023-08-08T03:36:43;3.63;;;1.93;;
46391;SDS011;32098;49.448;7.904;2023-08-08T03:39:10;4.17;;;2.03;;
46391;SDS011;32098;49.448;7.904;2023-08-08T03:41:36;2.03;;;1.50;;
46391;SDS011;32098;49.448;7.904;2023-08-08T03:44:04;2.33;;;1.57;;
46391;SDS011;32098;49.448;7.904;2023-08-08T03:46:30;1.90;;;1.77;;
46391;SDS011;32098;49.448;7.904;2023-08-08T03:48:57;2.63;;;1.63;;
46391;SDS011;32098;49.448;7.904;2023-08-08T03:51:24;5.23;;;1.73;;
46391;SDS011;32098;49.448;7.904;2023-08-08T03:53:50;2.73;;;1.80;;
46391;SDS011;32098;49.448;7.904;2023-08-08T03:56:17;3.53;;;1.70;;
46391;SDS011;32098;49.448;7.904;2023-08-08T03:58:44;3.93;;;2.13;;
46391;SDS011;32098;49.448;7.904;2023-08-08T04:01:10;1.87;;;1.70;;
46391;SDS011;32098;49.448;7.904;2023-08-08T04:03:37;2.47;;;1.60;;
46391;SDS011;32098;49.448;7.904;2023-08-08T04:06:04;4.80;;;1.90;;
46391;SDS011;32098;49.448;7.904;2023-08-08T04:08:32;2.17;;;1.70;;
46391;SDS011;32098;49.448;7.904;2023-08-08T04:10:58;4.83;;;2.00;;
46391;SDS011;32098;49.448;7.904;2023-08-08T04:13:25;2.70;;;1.43;;
46391;SDS011;32098;49.448;7.904;2023-08-08T04:15:51;4.00;;;2.13;;
46391;SDS011;32098;49.448;7.904;2023-08-08T04:18:18;3.53;;;1.67;;
46391;SDS011;32098;49.448;7.904;2023-08-08T04:20:45;2.80;;;1.63;;
46391;SDS011;32098;49.448;7.904;2023-08-08T04:23:13;2.67;;;1.83;;
46391;SDS011;32098;49.448;7.904;2023-08-08T04:25:40;3.30;;;1.57;;
46391;SDS011;32098;49.448;7.904;2023-08-08T04:28:06;5.00;;;1.50;;
46391;SDS011;32098;49.448;7.904;2023-08-08T04:30:33;2.23;;;1.80;;
46391;SDS011;32098;49.448;7.904;2023-08-08T04:33:00;2.50;;;1.53;;
46391;SDS011;32098;49.448;7.904;2023-08-08T04:35:26;1.77;;;1.30;;
46391;SDS011;32098;49.448;7.904;2023-08-08T04:37:53;1.50;;;1.40;;
46391;SDS011;32098;49.448;7.904;2023-08-08T04:40:19;2.30;;;1.43;;
46391;SDS011;32098;49.448;7.904;2023-08-08T04:42:46;2.50;;;1.47;;
46391;SDS011;32098;49.448;7.904;2023-08-08T04:45:12;2.37;;;1.60;;
46391;SDS011;32098;49.448;7.904;2023-08-08T04:47:39;1.97;;;1.60;;
46391;SDS011;32098;49.448;7.904;2023-08-08T04:50:05;1.60;;;1.50;;
46391;SDS011;32098;49.448;7.904;2023-08-08T04:52:32;3.90;;;1.93;;
46391;SDS011;32098;49.448;7.904;2023-08-08T04:54:59;2.67;;;1.70;;
46391;SDS011;32098;49.448;7.904;2023-08-08T04:57:25;2.23;;;1.60;;
46391;SDS011;32098;49.448;7.904;2023-08-08T04:59:52;3.17;;;1.70;;
46391;SDS011;32098;49.448;7.904;2023-08-08T05:02:18;1.77;;;1.43;;
46391;SDS011;32098;49.448;7.904;2023-08-08T05:04:45;4.03;;;1.73;;
46391;SDS011;32098;49.448;7.904;2023-08-08T05:07:12;3.77;;;1.87;;
46391;SDS011;32098;49.448;7.904;2023-08-08T05:09:39;2.37;;;1.43;;
46391;SDS011;32098;49.448;7.904;2023-08-08T05:12:06;3.03;;;1.60;;
46391;SDS011;32098;49.448;7.904;2023-08-08T05:14:33;3.27;;;1.70;;
46391;SDS011;32098;49.448;7.904;2023-08-08T05:17:01;3.03;;;1.53;;
46391;SDS011;32098;49.448;7.904;2023-08-08T05:19:28;2.77;;;1.77;;
46391;SDS011;32098;49.448;7.904;2023-08-08T05:21:55;4.40;;;1.73;;
46391;SDS011;32098;49.448;7.904;2023-08-08T05:24:21;5.87;;;2.07;;
46391;SDS011;32098;49.448;7.904;2023-08-08T05:26:48;1.83;;;1.73;;
46391;SDS011;32098;49.448;7.904;2023-08-08T05:29:14;2.93;;;1.80;;
46391;SDS011;32098;49.448;7.904;2023-08-08T05:31:41;3.33;;;1.80;;
46391;SDS011;32098;49.448;7.904;2023-08-08T05:34:07;2.27;;;2.07;;
46391;SDS011;32098;49.448;7.904;2023-08-08T05:36:34;4.83;;;2.10;;
46391;SDS011;32098;49.448;7.904;2023-08-08T05:39:00;3.83;;;2.03;;
46391;SDS011;32098;49.448;7.904;2023-08-08T05:41:27;3.70;;;2.17;;
46391;SDS011;32098;49.448;7.904;2023-08-08T05:43:53;2.13;;;1.93;;
46391;SDS011;32098;49.448;7.904;2023-08-08T05:46:20;2.50;;;2.13;;
46391;SDS011;32098;49.448;7.904;2023-08-08T05:48:47;3.93;;;1.90;;
46391;SDS011;32098;49.448;7.904;2023-08-08T05:51:14;3.27;;;2.00;;
46391;SDS011;32098;49.448;7.904;2023-08-08T05:53:40;3.73;;;2.20;;
46391;SDS011;32098;49.448;7.904;2023-08-08T05:56:07;3.07;;;2.00;;
46391;SDS011;32098;49.448;7.904;2023-08-08T05:58:35;2.93;;;1.93;;
46391;SDS011;32098;49.448;7.904;2023-08-08T06:01:03;3.60;;;2.00;;
46391;SDS011;32098;49.448;7.904;2023-08-08T06:03:35;2.25;;;1.80;;
46391;SDS011;32098;49.448;7.904;2023-08-08T06:06:04;3.38;;;2.00;;
46391;SDS011;32098;49.448;7.904;2023-08-08T06:08:31;2.65;;;1.83;;
46391;SDS011;32098;49.448;7.904;2023-08-08T06:10:58;3.13;;;1.85;;
46391;SDS011;32098;49.448;7.904;2023-08-08T06:13:24;3.63;;;1.55;;
46391;SDS011;32098;49.448;7.904;2023-08-08T06:15:51;4.38;;;1.70;;
46391;SDS011;32098;49.448;7.904;2023-08-08T06:18:17;3.83;;;1.45;;
46391;SDS011;32098;49.448;7.904;2023-08-08T06:20:44;2.65;;;1.50;;
46391;SDS011;32098;49.448;7.904;2023-08-08T06:23:10;3.13;;;1.20;;
46391;SDS011;32098;49.448;7.904;2023-08-08T06:25:37;4.00;;;1.30;;
46391;SDS011;32098;49.448;7.904;2023-08-08T06:28:05;4.03;;;2.08;;
46391;SDS011;32098;49.448;7.904;2023-08-08T06:30:32;2.42;;;1.38;;
46391;SDS011;32098;49.448;7.904;2023-08-08T06:32:59;2.60;;;1.40;;
46391;SDS011;32098;49.448;7.904;2023-08-08T06:35:26;1.98;;;1.27;;
46391;SDS011;32098;49.448;7.904;2023-08-08T06:37:52;7.00;;;1.48;;
46391;SDS011;32098;49.448;7.904;2023-08-08T06:40:19;5.15;;;1.20;;
46391;SDS011;32098;49.448;7.904;2023-08-08T06:42:46;3.15;;;1.50;;
46391;SDS011;32098;49.448;7.904;2023-08-08T06:45:12;1.50;;;1.00;;
46391;SDS011;32098;49.448;7.904;2023-08-08T06:47:39;2.53;;;1.13;;
46391;SDS011;32098;49.448;7.904;2023-08-08T06:50:06;4.30;;;1.50;;
46391;SDS011;32098;49.448;7.904;2023-08-08T06:52:33;2.28;;;1.17;;
46391;SDS011;32098;49.448;7.904;2023-08-08T06:54:59;1.55;;;1.08;;
46391;SDS011;32098;49.448;7.904;2023-08-08T06:57:26;1.85;;;1.05;;
46391;SDS011;32098;49.448;7.904;2023-08-08T06:59:52;3.28;;;1.02;;
46391;SDS011;32098;49.448;7.904;2023-08-08T07:02:19;3.13;;;1.10;;
46391;SDS011;32098;49.448;7.904;2023-08-08T07:04:47;1.40;;;0.90;;
46391;SDS011;32098;49.448;7.904;2023-08-08T07:07:13;1.90;;;1.30;;
46391;SDS011;32098;49.448;7.904;2023-08-08T07:09:40;2.72;;;1.27;;
46391;SDS011;32098;49.448;7.904;2023-08-08T07:12:08;1.25;;;0.80;;
46391;SDS011;32098;49.448;7.904;2023-08-08T07:14:34;2.80;;;0.93;;
46391;SDS011;32098;49.448;7.904;2023-08-08T07:17:01;3.50;;;0.90;;
46391;SDS011;32098;49.448;7.904;2023-08-08T07:19:30;1.52;;;0.75;;
46391;SDS011;32098;49.448;7.904;2023-08-08T07:21:56;1.48;;;0.90;;
46391;SDS011;32098;49.448;7.904;2023-08-08T07:24:24;4.30;;;1.10;;
46391;SDS011;32098;49.448;7.904;2023-08-08T07:26:55;1.30;;;0.90;;
46391;SDS011;32098;49.448;7.904;2023-08-08T07:29:22;2.70;;;1.10;;
46391;SDS011;32098;49.448;7.904;2023-08-08T07:31:49;2.00;;;1.00;;
46391;SDS011;32098;49.448;7.904;2023-08-08T07:34:15;2.17;;;1.20;;
46391;SDS011;32098;49.448;7.904;2023-08-08T07:36:42;3.85;;;1.42;;
46391;SDS011;32098;49.448;7.904;2023-08-08T07:39:08;1.38;;;0.80;;
46391;SDS011;32098;49.448;7.904;2023-08-08T07:41:35;1.13;;;0.63;;
46391;SDS011;32098;49.448;7.904;2023-08-08T07:44:01;1.25;;;0.77;;
46391;SDS011;32098;49.448;7.904;2023-08-08T07:46:28;1.52;;;1.00;;
46391;SDS011;32098;49.448;7.904;2023-08-08T07:48:55;3.75;;;1.00;;
46391;SDS011;32098;49.448;7.904;2023-08-08T07:51:25;2.08;;;1.00;;
46391;SDS011;32098;49.448;7.904;2023-08-08T07:53:52;2.65;;;0.90;;
46391;SDS011;32098;49.448;7.904;2023-08-08T07:56:18;1.40;;;1.00;;
46391;SDS011;32098;49.448;7.904;2023-08-08T07:58:45;2.28;;;0.85;;
46391;SDS011;32098;49.448;7.904;2023-08-08T08:01:11;7.28;;;1.10;;
46391;SDS011;32098;49.448;7.904;2023-08-08T08:03:40;6.35;;;1.20;;
46391;SDS011;32098;49.448;7.904;2023-08-08T08:06:07;4.22;;;1.13;;
46391;SDS011;32098;49.448;7.904;2023-08-08T08:08:34;1.05;;;0.82;;
46391;SDS011;32098;49.448;7.904;2023-08-08T08:11:01;1.95;;;0.75;;
46391;SDS011;32098;49.448;7.904;2023-08-08T08:13:29;1.00;;;0.73;;
46391;SDS011;32098;49.448;7.904;2023-08-08T08:15:55;2.10;;;1.10;;
46391;SDS011;32098;49.448;7.904;2023-08-08T08:18:22;2.10;;;0.80;;
46391;SDS011;32098;49.448;7.904;2023-08-08T08:20:48;2.75;;;1.17;;
46391;SDS011;32098;49.448;7.904;2023-08-08T08:23:15;1.98;;;1.00;;
46391;SDS011;32098;49.448;7.904;2023-08-08T08:25:42;2.53;;;1.00;;
46391;SDS011;32098;49.448;7.904;2023-08-08T08:28:08;2.92;;;0.90;;
46391;SDS011;32098;49.448;7.904;2023-08-08T08:30:35;4.32;;;1.20;;
46391;SDS011;32098;49.448;7.904;2023-08-08T08:33:03;3.60;;;0.98;;
46391;SDS011;32098;49.448;7.904;2023-08-08T08:35:30;2.47;;;1.08;;
46391;SDS011;32098;49.448;7.904;2023-08-08T08:37:57;3.05;;;1.10;;
46391;SDS011;32098;49.448;7.904;2023-08-08T08:40:23;1.58;;;0.77;;
46391;SDS011;32098;49.448;7.904;2023-08-08T08:42:50;1.92;;;0.90;;
46391;SDS011;32098;49.448;7.904;2023-08-08T08:45:18;2.38;;;1.02;;
46391;SDS011;32098;49.448;7.904;2023-08-08T08:47:47;2.45;;;0.80;;
46391;SDS011;32098;49.448;7.904;2023-08-08T08:50:16;1.55;;;0.75;;
46391;SDS011;32098;49.448;7.904;2023-08-08T08:52:44;2.15;;;0.93;;
46391;SDS011;32098;49.448;7.904;2023-08-08T08:55:11;1.00;;;0.90;;
46391;SDS011;32098;49.448;7.904;2023-08-08T08:57:38;2.78;;;1.42;;
46391;SDS011;32098;49.448;7.904;2023-08-08T09:00:05;2.13;;;0.98;;
46391;SDS011;32098;49.448;7.904;2023-08-08T09:02:32;2.15;;;1.10;;
46391;SDS011;32098;49.448;7.904;2023-08-08T09:05:00;3.05;;;1.10;;
46391;SDS011;32098;49.448;7.904;2023-08-08T09:07:28;2.63;;;1.10;;
46391;SDS011;32098;49.448;7.904;2023-08-08T09:09:57;3.42;;;1.15;;
46391;SDS011;32098;49.448;7.904;2023-08-08T09:12:24;2.38;;;1.10;;
46391;SDS011;32098;49.448;7.904;2023-08-08T09:14:54;1.80;;;1.10;;
46391;SDS011;32098;49.448;7.904;2023-08-08T09:17:25;3.08;;;1.05;;
46391;SDS011;32098;49.448;7.904;2023-08-08T09:20:13;1.65;;;0.90;;
46391;SDS011;32098;49.448;7.904;2023-08-08T09:22:39;1.55;;;0.80;;
46391;SDS011;32098;49.448;7.904;2023-08-08T09:25:06;2.60;;;1.00;;
46391;SDS011;32098;49.448;7.904;2023-08-08T09:27:34;3.25;;;1.23;;
46391;SDS011;32098;49.448;7.904;2023-08-08T09:30:02;2.25;;;1.00;;
46391;SDS011;32098;49.448;7.904;2023-08-08T09:32:32;2.35;;;1.13;;
46391;SDS011;32098;49.448;7.904;2023-08-08T09:34:59;3.00;;;1.52;;
46391;SDS011;32098;49.448;7.904;2023-08-08T09:37:26;1.42;;;0.93;;
46391;SDS011;32098;49.448;7.904;2023-08-08T09:39:57;2.17;;;1.17;;
46391;SDS011;32098;49.448;7.904;2023-08-08T09:42:28;2.13;;;1.10;;
46391;SDS011;32098;49.448;7.904;2023-08-08T09:44:55;2.00;;;0.80;;
46391;SDS011;32098;49.448;7.904;2023-08-08T09:47:23;1.88;;;1.13;;
46391;SDS011;32098;49.448;7.904;2023-08-08T09:49:50;3.25;;;1.20;;
46391;SDS011;32098;49.448;7.904;2023-08-08T09:52:17;3.38;;;1.40;;
46391;SDS011;32098;49.448;7.904;2023-08-08T09:54:45;1.95;;;1.20;;
46391;SDS011;32098;49.448;7.904;2023-08-08T09:57:14;1.75;;;0.85;;
46391;SDS011;32098;49.448;7.904;2023-08-08T09:59:40;2.13;;;1.10;;
46391;SDS011;32098;49.448;7.904;2023-08-08T10:02:08;2.25;;;1.00;;
46391;SDS011;32098;49.448;7.904;2023-08-08T10:04:39;2.83;;;1.10;;
46391;SDS011;32098;49.448;7.904;2023-08-08T10:07:05;4.57;;;1.20;;
46391;SDS011;32098;49.448;7.904;2023-08-08T10:09:32;2.97;;;1.20;;
46391;SDS011;32098;49.448;7.904;2023-08-08T10:12:00;1.88;;;1.10;;
46391;SDS011;32098;49.448;7.904;2023-08-08T10:14:28;3.88;;;1.30;;
46391;SDS011;32098;49.448;7.904;2023-08-08T10:16:57;1.58;;;1.10;;
46391;SDS011;32098;49.448;7.904;2023-08-08T10:19:23;1.45;;;0.88;;
46391;SDS011;32098;49.448;7.904;2023-08-08T10:21:55;4.35;;;1.35;;
46391;SDS011;32098;49.448;7.904;2023-08-08T10:24:25;1.25;;;1.00;;
46391;SDS011;32098;49.448;7.904;2023-08-08T10:26:58;2.83;;;1.20;;
46391;SDS011;32098;49.448;7.904;2023-08-08T10:29:27;1.00;;;0.90;;
46391;SDS011;32098;49.448;7.904;2023-08-08T10:32:02;1.80;;;1.13;;
46391;SDS011;32098;49.448;7.904;2023-08-08T10:34:36;4.13;;;1.33;;
46391;SDS011;32098;49.448;7.904;2023-08-08T10:37:13;2.00;;;1.10;;
46391;SDS011;32098;49.448;7.904;2023-08-08T10:39:51;2.88;;;1.33;;
46391;SDS011;32098;49.448;7.904;2023-08-08T10:42:22;1.80;;;0.73;;
46391;SDS011;32098;49.448;7.904;2023-08-08T10:44:51;3.35;;;1.10;;
46391;SDS011;32098;49.448;7.904;2023-08-08T10:47:26;1.58;;;1.10;;
46391;SDS011;32098;49.448;7.904;2023-08-08T10:49:59;1.65;;;1.02;;
46391;SDS011;32098;49.448;7.904;2023-08-08T10:52:29;1.75;;;1.10;;
46391;SDS011;32098;49.448;7.904;2023-08-08T10:54:56;1.38;;;1.23;;
46391;SDS011;32098;49.448;7.904;2023-08-08T10:57:26;2.92;;;0.98;;
46391;SDS011;32098;49.448;7.904;2023-08-08T10:59:53;1.65;;;1.08;;
46391;SDS011;32098;49.448;7.904;2023-08-08T11:02:20;2.25;;;1.00;;
46391;SDS011;32098;49.448;7.904;2023-08-08T11:04:48;1.27;;;0.90;;
46391;SDS011;32098;49.448;7.904;2023-08-08T11:07:16;2.13;;;0.93;;
46391;SDS011;32098;49.448;7.904;2023-08-08T11:09:43;3.90;;;1.20;;
46391;SDS011;32098;49.448;7.904;2023-08-08T11:12:14;3.22;;;1.00;;
46391;SDS011;32098;49.448;7.904;2023-08-08T11:14:41;2.22;;;1.00;;
46391;SDS011;32098;49.448;7.904;2023-08-08T11:17:08;1.65;;;0.80;;
46391;SDS011;32098;49.448;7.904;2023-08-08T11:19:40;2.65;;;1.00;;
46391;SDS011;32098;49.448;7.904;2023-08-08T11:22:10;2.03;;;1.05;;
46391;SDS011;32098;49.448;7.904;2023-08-08T11:24:38;1.75;;;0.77;;
46391;SDS011;32098;49.448;7.904;2023-08-08T11:27:04;2.40;;;1.08;;
46391;SDS011;32098;49.448;7.904;2023-08-08T11:29:31;4.05;;;1.15;;
46391;SDS011;32098;49.448;7.904;2023-08-08T11:32:01;2.72;;;1.10;;
46391;SDS011;32098;49.448;7.904;2023-08-08T11:34:30;2.00;;;1.20;;
46391;SDS011;32098;49.448;7.904;2023-08-08T11:36:59;2.72;;;1.10;;
46391;SDS011;32098;49.448;7.904;2023-08-08T11:39:27;1.95;;;1.15;;
46391;SDS011;32098;49.448;7.904;2023-08-08T11:41:55;1.98;;;0.90;;
46391;SDS011;32098;49.448;7.904;2023-08-08T11:44:24;1.95;;;1.15;;
46391;SDS011;32098;49.448;7.904;2023-08-08T11:46:51;2.55;;;1.20;;
46391;SDS011;32098;49.448;7.904;2023-08-08T11:49:17;1.23;;;1.10;;
46391;SDS011;32098;49.448;7.904;2023-08-08T11:51:45;1.05;;;0.75;;
46391;SDS011;32098;49.448;7.904;2023-08-08T11:54:12;1.40;;;1.20;;
46391;SDS011;32098;49.448;7.904;2023-08-08T11:56:39;2.25;;;1.05;;
46391;SDS011;32098;49.448;7.904;2023-08-08T11:59:06;1.75;;;0.90;;
46391;SDS011;32098;49.448;7.904;2023-08-08T12:01:33;1.60;;;0.90;;
46391;SDS011;32098;49.448;7.904;2023-08-08T12:04:07;1.45;;;0.95;;
46391;SDS011;32098;49.448;7.904;2023-08-08T12:06:38;2.35;;;1.00;;
46391;SDS011;32098;49.448;7.904;2023-08-08T12:09:12;1.48;;;1.05;;
46391;SDS011;32098;49.448;7.904;2023-08-08T12:11:41;2.50;;;1.35;;
46391;SDS011;32098;49.448;7.904;2023-08-08T12:14:08;1.70;;;0.70;;
46391;SDS011;32098;49.448;7.904;2023-08-08T12:16:37;1.80;;;1.10;;
46391;SDS011;32098;49.448;7.904;2023-08-08T12:19:07;1.63;;;0.75;;
46391;SDS011;32098;49.448;7.904;2023-08-08T12:21:37;2.58;;;0.85;;
46391;SDS011;32098;49.448;7.904;2023-08-08T12:24:04;0.95;;;0.80;;
46391;SDS011;32098;49.448;7.904;2023-08-08T12:26:31;1.92;;;1.15;;
46391;SDS011;32098;49.448;7.904;2023-08-08T12:28:58;2.42;;;1.15;;
46391;SDS011;32098;49.448;7.904;2023-08-08T12:31:24;2.67;;;1.00;;
46391;SDS011;32098;49.448;7.904;2023-08-08T12:33:51;2.97;;;1.00;;
46391;SDS011;32098;49.448;7.904;2023-08-08T12:36:20;1.20;;;0.75;;
46391;SDS011;32098;49.448;7.904;2023-08-08T12:38:47;3.30;;;0.95;;
46391;SDS011;32098;49.448;7.904;2023-08-08T12:41:13;3.10;;;1.30;;
46391;SDS011;32098;49.448;7.904;2023-08-08T12:43:40;2.47;;;1.15;;
46391;SDS011;32098;49.448;7.904;2023-08-08T12:46:06;2.20;;;1.02;;
46391;SDS011;32098;49.448;7.904;2023-08-08T12:48:33;1.17;;;0.95;;
46391;SDS011;32098;49.448;7.904;2023-08-08T12:51:00;3.53;;;1.10;;
46391;SDS011;32098;49.448;7.904;2023-08-08T12:53:26;1.73;;;0.70;;
46391;SDS011;32098;49.448;7.904;2023-08-08T12:55:53;3.13;;;0.90;;
46391;SDS011;32098;49.448;7.904;2023-08-08T12:58:19;3.40;;;1.33;;
46391;SDS011;32098;49.448;7.904;2023-08-08T13:00:46;2.40;;;0.85;;
46391;SDS011;32098;49.448;7.904;2023-08-08T13:03:12;2.72;;;1.00;;
46391;SDS011;32098;49.448;7.904;2023-08-08T13:05:39;0.63;;;0.60;;
46391;SDS011;32098;49.448;7.904;2023-08-08T13:08:06;1.38;;;0.98;;
46391;SDS011;32098;49.448;7.904;2023-08-08T13:10:32;2.17;;;1.17;;
46391;SDS011;32098;49.448;7.904;2023-08-08T13:12:59;2.05;;;0.85;;
46391;SDS011;32098;49.448;7.904;2023-08-08T13:15:26;2.35;;;1.00;;
46391;SDS011;32098;49.448;7.904;2023-08-08T13:17:53;1.67;;;0.85;;
46391;SDS011;32098;49.448;7.904;2023-08-08T13:20:19;2.25;;;0.80;;
46391;SDS011;32098;49.448;7.904;2023-08-08T13:22:46;1.85;;;0.88;;
46391;SDS011;32098;49.448;7.904;2023-08-08T13:25:12;2.42;;;1.20;;
46391;SDS011;32098;49.448;7.904;2023-08-08T13:27:39;1.75;;;1.05;;
46391;SDS011;32098;49.448;7.904;2023-08-08T13:30:06;2.70;;;1.00;;
46391;SDS011;32098;49.448;7.904;2023-08-08T13:32:33;1.10;;;0.93;;
46391;SDS011;32098;49.448;7.904;2023-08-08T13:35:00;4.72;;;1.20;;
46391;SDS011;32098;49.448;7.904;2023-08-08T13:37:26;2.95;;;0.90;;
46391;SDS011;32098;49.448;7.904;2023-08-08T13:39:53;1.42;;;0.88;;
46391;SDS011;32098;49.448;7.904;2023-08-08T13:42:19;1.65;;;0.80;;
46391;SDS011;32098;49.448;7.904;2023-08-08T13:44:46;1.20;;;1.00;;
46391;SDS011;32098;49.448;7.904;2023-08-08T13:47:12;1.80;;;0.90;;
46391;SDS011;32098;49.448;7.904;2023-08-08T13:49:39;1.98;;;1.10;;
46391;SDS011;32098;49.448;7.904;2023-08-08T13:52:05;1.85;;;0.90;;
46391;SDS011;32098;49.448;7.904;2023-08-08T13:54:32;1.58;;;0.90;;
46391;SDS011;32098;49.448;7.904;2023-08-08T13:56:58;3.08;;;1.20;;
46391;SDS011;32098;49.448;7.904;2023-08-08T13:59:25;1.70;;;0.93;;
46391;SDS011;32098;49.448;7.904;2023-08-08T14:01:52;1.35;;;0.90;;
46391;SDS011;32098;49.448;7.904;2023-08-08T14:04:19;0.82;;;0.82;;
46391;SDS011;32098;49.448;7.904;2023-08-08T14:06:46;1.40;;;0.98;;
46391;SDS011;32098;49.448;7.904;2023-08-08T14:09:12;6.10;;;1.00;;
46391;SDS011;32098;49.448;7.904;2023-08-08T14:11:41;2.08;;;1.00;;
46391;SDS011;32098;49.448;7.904;2023-08-08T14:14:08;1.58;;;1.02;;
46391;SDS011;32098;49.448;7.904;2023-08-08T14:16:34;2.00;;;1.17;;
46391;SDS011;32098;49.448;7.904;2023-08-08T14:19:01;1.55;;;1.00;;
46391;SDS011;32098;49.448;7.904;2023-08-08T14:21:27;1.33;;;1.00;;
46391;SDS011;32098;49.448;7.904;2023-08-08T14:23:54;2.42;;;1.10;;
46391;SDS011;32098;49.448;7.904;2023-08-08T14:26:21;1.20;;;0.82;;
46391;SDS011;32098;49.448;7.904;2023-08-08T14:28:47;5.30;;;1.45;;
46391;SDS011;32098;49.448;7.904;2023-08-08T14:31:14;1.80;;;1.00;;
46391;SDS011;32098;49.448;7.904;2023-08-08T14:33:40;2.28;;;1.10;;
46391;SDS011;32098;49.448;7.904;2023-08-08T14:36:07;1.88;;;1.00;;
46391;SDS011;32098;49.448;7.904;2023-08-08T14:38:36;2.55;;;1.27;;
46391;SDS011;32098;49.448;7.904;2023-08-08T14:41:03;3.78;;;1.13;;
46391;SDS011;32098;49.448;7.904;2023-08-08T14:43:30;4.93;;;1.00;;
46391;SDS011;32098;49.448;7.904;2023-08-08T14:45:56;2.67;;;1.00;;
46391;SDS011;32098;49.448;7.904;2023-08-08T14:48:23;2.70;;;1.00;;